createdAt,value
2022-12-08T00:04:50.342Z,0.0
2022-12-08T00:11:18.374Z,0.0
2022-12-08T00:17:45.870Z,0.0
2022-12-08T00:24:16.248Z,0.0
2022-12-08T00:30:43.857Z,0.0
2022-12-08T00:37:10.372Z,0.0
2022-12-08T00:58:24.878Z,0.0
2022-12-08T01:07:30.313Z,0.0
2022-12-08T01:13:58.094Z,0.0
2022-12-08T01:20:25.358Z,0.0
2022-12-08T01:27:25.417Z,0.0
2022-12-08T01:40:43.651Z,0.0
2022-12-08T01:47:10.257Z,0.0
2022-12-08T01:53:38.443Z,0.0
2022-12-08T02:00:08.264Z,0.0
2022-12-08T02:07:41.983Z,0.0
2022-12-08T02:14:34.464Z,0.0
2022-12-08T02:26:51.401Z,0.0
2022-12-08T02:33:19.086Z,0.0
2022-12-08T02:39:46.794Z,0.0
2022-12-08T02:50:53.271Z,0.0
2022-12-08T02:57:20.446Z,0.0
2022-12-08T03:03:48.572Z,0.0
2022-12-08T03:10:16.315Z,0.0
2022-12-08T03:18:55.359Z,0.0
2022-12-08T03:25:24.346Z,0.0
2022-12-08T03:31:52.768Z,0.0
2022-12-08T03:38:20.475Z,0.0
2022-12-08T03:50:29.342Z,0.0
2022-12-08T03:56:57.053Z,0.0
2022-12-08T04:06:34.195Z,0.0
2022-12-08T04:13:01.775Z,0.0
2022-12-08T04:19:28.983Z,0.0
2022-12-08T04:25:57.358Z,0.0
2022-12-08T04:38:29.951Z,0.0
2022-12-08T04:51:00.619Z,0.0
2022-12-08T04:57:28.290Z,0.0
2022-12-08T05:03:55.919Z,0.0
2022-12-08T05:16:11.451Z,0.0
2022-12-08T05:26:05.303Z,0.0
2022-12-08T05:32:33.634Z,0.0
2022-12-08T05:39:00.152Z,0.0
2022-12-08T05:45:26.999Z,0.0
2022-12-08T05:51:54.129Z,0.0
2022-12-08T05:58:20.509Z,0.0
2022-12-08T06:06:15.081Z,0.0
2022-12-08T06:17:51.375Z,0.0
2022-12-08T06:28:01.248Z,0.0
2022-12-08T06:34:28.520Z,0.0
2022-12-08T06:47:08.036Z,0.0
2022-12-08T06:53:35.603Z,0.0
2022-12-08T07:02:47.517Z,0.0
2022-12-08T07:09:14.785Z,0.0
2022-12-08T07:15:42.071Z,0.0
2022-12-08T07:27:19.868Z,0.0
2022-12-08T07:33:47.147Z,0.0
2022-12-08T07:40:14.389Z,0.0
2022-12-08T07:46:43.157Z,3.753377926421404
2022-12-08T08:01:30.204Z,6.716521739130436
2022-12-08T08:07:58.906Z,6.488394648829431
2022-12-08T08:20:58.108Z,12.25632107023411
2022-12-08T08:27:26.667Z,7.541939799331102
2022-12-08T08:33:55.698Z,12.47260869565218
2022-12-08T08:49:53.711Z,9.663411371237455
2022-12-08T08:56:23.716Z,6.425785953177254
2022-12-08T09:02:56.431Z,4.737290969899664
2022-12-08T09:11:16.437Z,7.553076923076924
2022-12-08T09:18:14.796Z,8.845484949832775
2022-12-08T09:24:45.336Z,22.636655518394658
2022-12-08T09:36:12.425Z,15.667558528428104
2022-12-08T09:42:42.607Z,22.680334448160536
2022-12-08T09:49:11.341Z,19.723745819397998
2022-12-08T09:55:40.227Z,25.348929765886304
2022-12-08T10:02:10.768Z,36.913143812709045
2022-12-08T10:08:39.578Z,44.960167224080294
2022-12-08T10:15:09.507Z,40.808561872909706
2022-12-08T10:21:38.685Z,46.94809364548498
2022-12-08T10:28:08.458Z,62.25862876254181
2022-12-08T10:45:32.330Z,77.9098996655519
2022-12-08T10:53:55.382Z,45.65749163879599
2022-12-08T11:00:24.043Z,67.29976588628759
2022-12-08T11:06:53.944Z,63.48521739130432
2022-12-08T11:13:22.196Z,39.324648829431446
2022-12-08T11:21:50.075Z,29.16722408026754
2022-12-08T11:28:19.067Z,28.65327759197324
2022-12-08T11:34:47.374Z,37.475618729097015
2022-12-08T11:41:16.632Z,37.41765886287625
2022-12-08T11:57:33.620Z,44.15287625418063
2022-12-08T12:06:46.435Z,45.62183946488294
2022-12-08T12:13:23.076Z,21.253712374581923
2022-12-08T12:24:12.233Z,19.817290969899673
2022-12-08T12:31:42.550Z,32.851638795986624
2022-12-08T12:38:12.745Z,21.63802675585285
2022-12-08T12:44:42.763Z,15.022508361204006
2022-12-08T12:51:11.573Z,12.847558528428094
2022-12-08T12:57:40.114Z,12.46759197324415
2022-12-08T13:04:08.423Z,11.66117056856186
2022-12-08T13:10:37.811Z,10.560903010033442
2022-12-08T13:25:26.877Z,13.00876254180602
2022-12-08T13:35:38.730Z,13.723010033444812
2022-12-08T13:42:29.679Z,11.1391304347826
2022-12-08T13:57:01.261Z,9.293879598662206
2022-12-08T14:03:35.129Z,8.598528428093644
2022-12-08T14:10:03.694Z,12.776020066889629
2022-12-08T14:16:32.522Z,31.99367892976589
2022-12-08T14:23:02.191Z,36.283979933110366
2022-12-08T14:29:30.460Z,22.25839464882943
2022-12-08T14:36:14.070Z,10.823444816053506
2022-12-08T14:42:42.967Z,10.978929765886278
2022-12-08T14:49:10.992Z,9.29521739130435
2022-12-08T14:58:16.646Z,1.2338461538461538
2022-12-08T15:04:44.361Z,0.023913043478260863
2022-12-08T15:11:11.942Z,0.0
2022-12-08T15:17:40.006Z,0.0
2022-12-08T15:24:08.056Z,0.0
2022-12-08T15:31:00.290Z,0.0
2022-12-08T15:37:28.758Z,0.0
2022-12-08T15:43:56.705Z,0.0
2022-12-08T15:50:25.167Z,0.0
2022-12-08T16:01:13.592Z,0.0
2022-12-08T16:07:41.894Z,0.0
2022-12-08T16:14:47.426Z,0.0
2022-12-08T16:22:30.388Z,0.0
2022-12-08T16:29:19.874Z,0.0
2022-12-08T16:36:45.737Z,0.0
2022-12-08T16:43:36.658Z,0.0
2022-12-08T16:50:26.345Z,0.0
2022-12-08T16:57:32.762Z,0.0
2022-12-08T17:04:29.739Z,0.0
2022-12-08T17:10:59.276Z,0.0
2022-12-08T17:17:27.667Z,0.0
2022-12-08T17:26:18.909Z,0.0
2022-12-08T17:32:48.387Z,0.0
2022-12-08T17:39:19.017Z,0.0
2022-12-08T17:45:49.141Z,0.0
2022-12-08T17:52:17.588Z,0.0
2022-12-08T17:58:48.674Z,0.0
2022-12-08T18:06:43.790Z,0.0
2022-12-08T18:13:12.418Z,0.0
2022-12-08T18:19:41.419Z,0.0
2022-12-08T18:26:11.048Z,0.0
2022-12-08T18:38:50.992Z,0.0
2022-12-08T18:45:22.221Z,0.0
2022-12-08T18:54:16.861Z,0.0
2022-12-08T19:00:45.618Z,0.0
2022-12-08T19:07:13.776Z,0.0
2022-12-08T19:19:14.387Z,0.0
2022-12-08T19:25:44.996Z,0.0
2022-12-08T19:32:14.620Z,0.0
2022-12-08T19:38:44.396Z,0.0
2022-12-08T19:48:09.520Z,0.0
2022-12-08T19:54:38.329Z,0.0
2022-12-08T20:11:46.706Z,0.0
2022-12-08T20:21:54.714Z,0.0
2022-12-08T20:28:22.951Z,0.0
2022-12-08T20:41:41.958Z,0.0
2022-12-08T20:48:09.054Z,0.0
2022-12-08T20:54:36.000Z,0.0
2022-12-08T21:07:06.408Z,0.0
2022-12-08T21:13:35.444Z,0.0
2022-12-08T21:22:18.491Z,0.0
2022-12-08T21:28:48.273Z,0.0
2022-12-08T21:35:17.324Z,0.0
2022-12-08T21:41:47.380Z,0.0
2022-12-08T21:48:18.660Z,0.0
2022-12-08T21:54:52.735Z,0.0
2022-12-08T22:01:22.292Z,0.0
2022-12-08T22:07:54.184Z,0.0
2022-12-08T22:14:25.337Z,0.0
2022-12-08T22:20:57.515Z,0.0
2022-12-08T22:29:05.986Z,0.0
2022-12-08T22:35:36.290Z,0.0
2022-12-08T22:42:23.438Z,0.0
2022-12-08T22:48:53.737Z,0.0
2022-12-08T22:55:25.145Z,0.0
2022-12-08T23:01:56.029Z,0.0
2022-12-08T23:08:26.839Z,0.0
2022-12-08T23:14:56.505Z,0.0
2022-12-08T23:23:44.457Z,0.0
2022-12-08T23:31:31.895Z,0.0
2022-12-08T23:38:00.857Z,0.0
2022-12-08T23:44:29.152Z,0.0
2022-12-08T23:54:26.215Z,0.0
